Time;durP1;ratioP1;P1;durP2;ratioP2;P2;SDS_P1;SDS_P2;PMS_P1;PMS_P2;Temp;Humidity;BMP_temperature;BMP_pressure;BME280_temperature;BME280_humidity;BME280_pressure;Samples;Min_cycle;Max_cycle;Signal;HPM_P1;HPM_P2
2021/03/26 00:01:30;;;;;;;;;;;;;;;11.40;54.24;101528.59;5097264;28;20130;-73
2021/03/26 00:03:58;;;;;;;;;;;;;;;11.14;54.71;101525.41;5083721;28;20299;-74
2021/03/26 00:06:26;;;;;;;;;;;;;;;11.07;55.08;101533.22;5072306;28;19931;-74
2021/03/26 00:08:53;;;;;;;;;;;;;;;11.24;54.52;101526.03;5075241;28;19931;-73
2021/03/26 00:11:21;;;;;;;;;;;;;;;11.36;54.09;101525.59;5089688;28;20277;-74
2021/03/26 00:13:47;;;;;;;;;;;;;;;11.35;54.13;101519.25;5091383;28;20410;-73
2021/03/26 00:16:14;;;;;;;;;;;;;;;11.49;53.86;101522.06;5071685;28;20386;-73
2021/03/26 00:18:41;;;;;;;;;;;;;;;11.60;53.75;101525.50;5077917;28;19924;-72
2021/03/26 00:21:09;;;;;;;;;;;;;;;11.48;54.12;101520.44;5100566;28;19981;-71
2021/03/26 00:23:36;;;;;;;;;;;;;;;11.37;54.42;101518.97;5087716;28;20287;-74
2021/03/26 00:26:04;;;;;;;;;;;;;;;11.20;54.59;101516.75;5073919;28;20295;-73
2021/03/26 00:28:31;;;;;;;;;;;;;;;11.13;54.83;101512.72;5065894;28;20318;-74
2021/03/26 00:30:57;;;;;;;;;;;;;;;11.19;54.94;101517.03;5089925;28;20299;-75
2021/03/26 00:33:24;;;;;;;;;;;;;;;11.19;54.83;101508.78;5082029;28;19925;-74
2021/03/26 00:35:53;;;;;;;;;;;;;;;11.07;55.40;101511.94;5090939;28;19928;-73
2021/03/26 00:38:21;;;;;;;;;;;;;;;11.09;55.49;101511.66;5070047;28;19929;-74
2021/03/26 00:40:47;;;;;;;;;;;;;;;10.73;56.51;101508.56;5089540;28;19924;-75
2021/03/26 00:43:14;;;;;;;;;;;;;;;10.81;56.54;101509.88;5072061;28;19932;-75
2021/03/26 00:45:42;;;;;;;;;;;;;;;10.85;56.37;101508.97;5057222;28;19924;-74
2021/03/26 00:48:10;;;;;;;;;;;;;;;10.85;56.49;101508.97;5090064;28;19931;-74
2021/03/26 00:50:40;;;;;;;;;;;;;;;10.32;57.95;101521.16;5073655;28;19928;-74
2021/03/26 00:53:09;;;;;;;;;;;;;;;10.57;57.46;101517.31;5070791;28;19929;-74
2021/03/26 00:55:36;;;;;;;;;;;;;;;10.77;56.89;101508.81;5086440;28;20303;-75
2021/03/26 00:58:03;;;;;;;;;;;;;;;10.87;56.60;101516.94;5063728;28;19924;-73
2021/03/26 01:00:44;;;;;;;;;;;;;;;10.74;56.86;101515.72;5058606;28;19924;-74
2021/03/26 01:03:13;;;;;;;;;;;;;;;10.94;56.50;101511.88;5069711;28;19932;-74
2021/03/26 01:05:43;;;;;;;;;;;;;;;10.82;56.79;101517.00;5072951;28;19939;-72
2021/03/26 01:08:10;;;;;;;;;;;;;;;10.85;56.76;101511.72;5070460;28;19924;-73
2021/03/26 01:10:38;;;;;;;;;;;;;;;10.83;56.87;101510.34;5054534;28;19924;-73
2021/03/26 01:13:05;;;;;;;;;;;;;;;10.66;57.43;101512.78;5050369;28;19947;-73
2021/03/26 01:15:32;;;;;;;;;;;;;;;10.43;58.10;101510.88;5053334;28;20337;-74
2021/03/26 01:18:00;;;;;;;;;;;;;;;10.53;57.93;101508.00;5066523;28;19924;-72
2021/03/26 01:20:29;;;;;;;;;;;;;;;10.36;58.35;101507.63;5070078;28;19936;-72
2021/03/26 01:22:58;;;;;;;;;;;;;;;10.47;58.05;101507.25;5077117;28;19928;-73
2021/03/26 01:25:27;;;;;;;;;;;;;;;10.71;57.40;101497.03;5083946;28;19925;-75
2021/03/26 01:28:12;;;;;;;;;;;;;;;10.29;58.50;101485.97;5077602;28;19924;-73
2021/03/26 01:30:39;;;;;;;;;;;;;;;10.15;58.98;101494.09;5072598;28;19931;-72
2021/03/26 01:33:06;;;;;;;;;;;;;;;10.08;59.25;101488.13;5057042;28;20276;-73
2021/03/26 01:35:35;;;;;;;;;;;;;;;10.08;59.38;101487.25;5074253;28;19939;-72
2021/03/26 01:38:02;;;;;;;;;;;;;;;10.07;59.34;101480.13;5071578;28;19925;-73
2021/03/26 01:40:59;;;;;;;;;;;;;;;10.01;59.76;101473.03;5051441;28;19954;-72
2021/03/26 01:43:27;;;;;;;;;;;;;;;10.10;59.22;101469.41;5046156;28;19924;-72
2021/03/26 01:45:54;;;;;;;;;;;;;;;9.91;59.68;101465.72;5053142;28;19925;-72
2021/03/26 01:48:27;;;;;;;;;;;;;;;9.94;59.43;101461.53;5066972;28;19947;-72
2021/03/26 01:50:55;;;;;;;;;;;;;;;10.00;59.28;101466.72;5075479;28;19931;-72
2021/03/26 01:53:22;;;;;;;;;;;;;;;10.26;58.63;101460.94;5093891;28;20394;-73
2021/03/26 01:55:52;;;;;;;;;;;;;;;10.29;58.53;101461.19;5073247;28;20379;-73
2021/03/26 01:58:22;;;;;;;;;;;;;;;10.11;58.89;101462.75;5058676;28;19928;-72
2021/03/26 02:00:53;;;;;;;;;;;;;;;10.46;58.02;101460.72;5071490;28;19924;-72
2021/03/26 02:03:24;;;;;;;;;;;;;;;10.22;58.38;101454.41;5072894;28;19935;-72
2021/03/26 02:05:55;;;;;;;;;;;;;;;10.34;58.17;101454.81;5088022;28;19935;-73
2021/03/26 02:08:35;;;;;;;;;;;;;;;10.43;57.87;101458.53;5043958;28;19931;-73
2021/03/26 02:11:14;;;;;;;;;;;;;;;10.39;57.87;101450.03;5076366;28;19924;-74
2021/03/26 02:13:41;;;;;;;;;;;;;;;10.46;57.60;101452.47;5071093;28;19924;-73
2021/03/26 02:16:19;;;;;;;;;;;;;;;10.39;58.06;101460.25;5036613;28;20372;-72
2021/03/26 02:19:15;;;;;;;;;;;;;;;10.39;57.90;101461.06;5045816;28;19924;-73
2021/03/26 02:21:42;;;;;;;;;;;;;;;10.22;58.10;101459.91;5059343;28;19924;-73
2021/03/26 02:24:10;;;;;;;;;;;;;;;10.42;58.18;101454.16;5055416;28;19932;-74
2021/03/26 02:26:41;;;;;;;;;;;;;;;10.22;58.48;101448.91;5056229;28;19924;-73
2021/03/26 02:29:25;;;;;;;;;;;;;;;10.06;59.12;101448.19;5075482;28;19932;-74
2021/03/26 02:32:08;;;;;;;;;;;;;;;10.14;58.64;101436.59;5090414;28;20364;-74
2021/03/26 02:34:37;;;;;;;;;;;;;;;10.23;58.25;101435.63;5072085;28;19931;-74
2021/03/26 02:37:09;;;;;;;;;;;;;;;10.36;57.88;101433.28;5071343;28;19935;-75
2021/03/26 02:39:40;;;;;;;;;;;;;;;10.49;57.81;101429.81;5065499;28;19928;-72
2021/03/26 02:42:37;;;;;;;;;;;;;;;10.16;58.31;101434.38;5060089;28;20395;-73
2021/03/26 02:45:24;;;;;;;;;;;;;;;10.15;58.39;101421.72;5012819;28;19944;-73
2021/03/26 02:47:56;;;;;;;;;;;;;;;9.82;59.45;101423.44;5015654;28;19925;-74
2021/03/26 02:50:39;;;;;;;;;;;;;;;10.01;59.02;101416.06;5029323;28;19925;-73
2021/03/26 02:53:17;;;;;;;;;;;;;;;10.09;58.85;101409.13;5014638;28;19932;-71
2021/03/26 02:56:04;;;;;;;;;;;;;;;9.96;58.88;101407.88;5030177;28;19936;-72
2021/03/26 02:58:38;;;;;;;;;;;;;;;9.73;59.74;101408.66;5008448;28;19933;-73
2021/03/26 03:01:19;;;;;;;;;;;;;;;9.96;59.01;101412.53;4994930;28;19941;-72
2021/03/26 03:03:47;;;;;;;;;;;;;;;10.03;58.94;101402.00;5009150;28;19926;-73
2021/03/26 03:06:17;;;;;;;;;;;;;;;9.92;59.34;101400.50;5002342;28;19932;-73
2021/03/26 03:09:04;;;;;;;;;;;;;;;9.74;60.08;101410.31;4996738;28;20577;-74
2021/03/26 03:11:34;;;;;;;;;;;;;;;9.66;60.39;101407.38;4990587;28;19932;-72
2021/03/26 03:14:28;;;;;;;;;;;;;;;9.75;60.43;101403.69;4990910;28;20416;-73
2021/03/26 03:17:00;;;;;;;;;;;;;;;9.58;61.15;101410.75;4992757;28;20030;-73
2021/03/26 03:19:32;;;;;;;;;;;;;;;9.61;61.19;101393.66;4979482;28;20305;-73
2021/03/26 03:22:04;;;;;;;;;;;;;;;9.42;61.95;101395.50;4986134;28;20049;-73
2021/03/26 03:24:33;;;;;;;;;;;;;;;9.47;61.73;101393.53;4980128;28;20321;-73
2021/03/26 03:27:18;;;;;;;;;;;;;;;9.49;62.06;101394.06;5006758;28;20301;-70
2021/03/26 03:29:50;;;;;;;;;;;;;;;9.66;61.45;101401.88;4984834;28;20582;-73
2021/03/26 03:32:41;;;;;;;;;;;;;;;9.78;61.10;101394.06;5025544;28;19933;-73
2021/03/26 03:35:12;;;;;;;;;;;;;;;9.71;61.19;101396.31;4994173;28;20292;-71
2021/03/26 03:37:43;;;;;;;;;;;;;;;9.69;61.44;101393.84;5005273;28;19930;-72
2021/03/26 03:40:24;;;;;;;;;;;;;;;9.48;61.85;101395.19;4998431;28;19929;-72
2021/03/26 03:42:57;;;;;;;;;;;;;;;9.37;62.59;101390.88;5026548;28;19960;-73
2021/03/26 03:45:27;;;;;;;;;;;;;;;9.28;62.91;101394.53;5005448;28;20405;-73
2021/03/26 03:48:24;;;;;;;;;;;;;;;9.10;63.32;101396.03;5078841;28;19954;-73
2021/03/26 03:50:53;;;;;;;;;;;;;;;9.14;63.24;101397.13;5042143;28;19928;-73
2021/03/26 03:53:22;;;;;;;;;;;;;;;9.33;62.89;101397.25;5072891;28;19924;-71
2021/03/26 03:56:15;;;;;;;;;;;;;;;9.18;63.41;101394.63;5053878;28;19932;-72
2021/03/26 03:58:42;;;;;;;;;;;;;;;9.14;63.31;101399.88;5057477;28;20374;-72
2021/03/26 04:01:15;;;;;;;;;;;;;;;9.02;63.48;101391.16;5074338;28;19931;-73
2021/03/26 04:03:44;;;;;;;;;;;;;;;9.05;63.68;101391.41;5073526;28;19924;-72
2021/03/26 04:06:30;;;;;;;;;;;;;;;8.92;64.28;101389.34;5092433;28;20298;-73
2021/03/26 04:09:04;;;;;;;;;;;;;;;8.78;64.74;101393.84;5063666;28;19924;-72
2021/03/26 04:11:36;;;;;;;;;;;;;;;8.73;65.01;101393.03;5070921;28;19951;-75
2021/03/26 04:14:45;;;;;;;;;;;;;;;8.90;64.60;101397.03;5053880;28;19924;-72
2021/03/26 04:17:18;;;;;;;;;;;;;;;9.05;64.14;101388.66;5037169;28;19987;-71
2021/03/26 04:19:46;;;;;;;;;;;;;;;9.02;63.98;101391.16;5054298;28;19925;-72
2021/03/26 04:22:24;;;;;;;;;;;;;;;8.99;64.09;101392.59;5057582;28;19924;-72
2021/03/26 04:25:04;;;;;;;;;;;;;;;8.93;64.50;101393.72;5058772;28;19931;-72
2021/03/26 04:27:38;;;;;;;;;;;;;;;9.01;64.12;101390.34;5071091;28;19925;-73
2021/03/26 04:30:11;;;;;;;;;;;;;;;9.58;62.83;101386.00;5070333;28;19928;-72
2021/03/26 04:32:57;;;;;;;;;;;;;;;9.33;63.25;101383.50;5001617;28;19974;-71
2021/03/26 04:35:26;;;;;;;;;;;;;;;9.22;63.53;101382.78;4999606;28;20022;-72
2021/03/26 04:38:04;;;;;;;;;;;;;;;9.29;63.49;101376.94;4993900;28;19932;-71
2021/03/26 04:40:32;;;;;;;;;;;;;;;9.17;63.78;101382.00;4995005;28;19926;-73
2021/03/26 04:43:09;;;;;;;;;;;;;;;9.32;63.25;101370.84;4998256;28;19925;-74
2021/03/26 04:45:48;;;;;;;;;;;;;;;9.30;63.23;101375.81;5020824;28;19929;-73
2021/03/26 04:48:40;;;;;;;;;;;;;;;9.23;64.03;101378.06;4994040;28;20412;-73
2021/03/26 04:51:46;;;;;;;;;;;;;;;9.38;63.40;101377.97;4932588;28;19954;-73
2021/03/26 04:54:19;;;;;;;;;;;;;;;9.38;63.29;101377.97;4916773;29;20017;-73
2021/03/26 04:57:02;;;;;;;;;;;;;;;9.46;63.00;101372.66;4936484;28;19926;-73
2021/03/26 04:59:37;;;;;;;;;;;;;;;9.54;62.82;101380.25;4942306;29;20006;-74
2021/03/26 05:02:10;;;;;;;;;;;;;;;9.66;62.77;101375.19;4924363;29;19933;-75
2021/03/26 05:04:39;;;;;;;;;;;;;;;9.59;62.51;101374.69;4921119;29;19934;-76
2021/03/26 05:07:08;;;;;;;;;;;;;;;9.52;62.79;101370.66;4939396;28;19926;-73
2021/03/26 05:09:37;;;;;;;;;;;;;;;9.60;62.79;101370.03;4920071;28;19933;-74
2021/03/26 05:12:23;;;;;;;;;;;;;;;9.51;63.04;101371.75;4968549;28;19929;-73
2021/03/26 05:14:52;;;;;;;;;;;;;;;9.44;63.10;101363.88;4967625;28;19926;-72
2021/03/26 05:17:33;;;;;;;;;;;;;;;9.61;62.88;101369.72;5003423;28;19925;-74
2021/03/26 05:20:33;;;;;;;;;;;;;;;9.39;63.54;101374.91;5014933;28;20436;-72
2021/03/26 05:23:21;;;;;;;;;;;;;;;9.43;63.25;101372.41;4985275;28;19929;-74
2021/03/26 05:26:06;;;;;;;;;;;;;;;9.67;62.76;101374.09;4993992;28;19933;-75
2021/03/26 05:28:43;;;;;;;;;;;;;;;9.56;63.00;101379.97;5038058;28;19932;-74
2021/03/26 05:31:31;;;;;;;;;;;;;;;9.33;63.92;101370.56;5042872;28;19924;-73
2021/03/26 05:34:04;;;;;;;;;;;;;;;9.75;62.65;101375.34;5074486;28;19925;-77
2021/03/26 05:36:35;;;;;;;;;;;;;;;9.48;63.09;101375.09;5074140;28;19931;-75
2021/03/26 05:39:26;;;;;;;;;;;;;;;9.43;63.52;101375.16;5078507;28;20271;-72
2021/03/26 05:42:08;;;;;;;;;;;;;;;9.35;63.72;101373.00;5063834;28;20376;-74
2021/03/26 05:45:13;;;;;;;;;;;;;;;9.10;64.54;101374.06;5072333;28;19924;-72
2021/03/26 05:48:18;;;;;;;;;;;;;;;9.22;64.33;101369.03;5094544;28;19924;-74
2021/03/26 05:50:51;;;;;;;;;;;;;;;9.21;64.28;101364.63;5077026;28;19931;-74
2021/03/26 05:53:47;;;;;;;;;;;;;;;9.09;65.08;101365.00;5058560;28;19924;-75
2021/03/26 05:56:46;;;;;;;;;;;;;;;9.12;65.03;101363.59;5062804;28;19954;-74
2021/03/26 05:59:19;;;;;;;;;;;;;;;9.11;65.13;101361.97;5093581;28;20299;-73
2021/03/26 06:02:16;;;;;;;;;;;;;;;9.31;64.40;101360.97;5059238;28;19924;-73
2021/03/26 06:05:26;;;;;;;;;;;;;;;9.16;64.89;101364.66;4992682;28;20026;-74
2021/03/26 06:08:20;;;;;;;;;;;;;;;9.05;65.30;101363.94;5011829;28;19925;-73
2021/03/26 06:11:24;;;;;;;;;;;;;;;9.05;65.70;101365.84;5018020;28;20416;-74
2021/03/26 06:14:35;;;;;;;;;;;;;;;8.98;65.91;101362.63;4976734;28;19929;-75
2021/03/26 06:17:39;;;;;;;;;;;;;;;8.94;66.29;101365.13;4978484;28;20443;-74
2021/03/26 06:21:04;;;;;;;;;;;;;;;8.84;66.64;101367.13;4968969;28;19946;-74
2021/03/26 06:24:02;;;;;;;;;;;;;;;8.94;66.29;101365.13;4895752;29;20376;-75
2021/03/26 06:26:44;;;;;;;;;;;;;;;9.01;66.36;101364.81;4896536;29;20033;-73
2021/03/26 06:29:17;;;;;;;;;;;;;;;9.15;66.14;101363.03;4895588;29;19935;-73
2021/03/26 06:32:03;;;;;;;;;;;;;;;9.05;66.31;101357.63;4879356;29;20319;-74
2021/03/26 06:34:57;;;;;;;;;;;;;;;9.07;66.40;101361.72;4896515;29;19935;-72
2021/03/26 06:37:30;;;;;;;;;;;;;;;9.00;66.77;101363.97;4895526;29;19927;-72
2021/03/26 06:40:12;;;;;;;;;;;;;;;9.03;66.62;101362.59;4881285;29;19934;-76
2021/03/26 06:42:38;;;;;;;;;;;;;;;9.25;65.88;101368.44;4896604;29;19927;-73
2021/03/26 06:45:24;;;;;;;;;;;;;;;9.26;65.92;101366.53;4910258;29;19934;-75
2021/03/26 06:48:06;;;;;;;;;;;;;;;9.13;66.08;101368.81;4915561;29;19931;-74
2021/03/26 06:50:53;;;;;;;;;;;;;;;9.04;66.17;101373.31;4913215;29;19933;-73
2021/03/26 06:53:29;;;;;;;;;;;;;;;9.18;65.45;101367.97;4964553;28;19933;-71
2021/03/26 06:55:55;;;;;;;;;;;;;;;9.09;65.70;101373.25;4970224;28;19926;-72
2021/03/26 06:58:34;;;;;;;;;;;;;;;9.20;65.52;101367.66;4968363;28;19927;-74
2021/03/26 07:01:02;;;;;;;;;;;;;;;9.21;65.29;101372.03;5036057;28;19924;-71
2021/03/26 07:03:29;;;;;;;;;;;;;;;9.28;65.14;101372.53;5067822;28;19931;-71
2021/03/26 07:06:02;;;;;;;;;;;;;;;9.26;65.27;101372.03;5078023;28;19931;-73
2021/03/26 07:08:49;;;;;;;;;;;;;;;9.27;65.50;101370.91;5077030;28;19931;-72
2021/03/26 07:11:34;;;;;;;;;;;;;;;9.25;65.59;101364.88;5069648;28;19924;-73
2021/03/26 07:14:14;;;;;;;;;;;;;;;9.32;65.46;101366.19;5063792;28;20273;-74
2021/03/26 07:16:56;;;;;;;;;;;;;;;9.46;65.24;101360.81;5069013;28;19924;-74
2021/03/26 07:19:23;;;;;;;;;;;;;;;9.52;65.18;101357.72;5072108;28;20380;-74
2021/03/26 07:21:55;;;;;;;;;;;;;;;9.62;64.91;101365.88;5064982;28;19928;-73
2021/03/26 07:24:30;;;;;;;;;;;;;;;9.48;64.99;101353.94;5074977;28;19947;-75
2021/03/26 07:27:00;;;;;;;;;;;;;;;9.64;64.33;101360.09;5065315;28;19925;-75
2021/03/26 07:29:30;;;;;;;;;;;;;;;9.70;64.36;101350.66;5076198;28;20422;-72
2021/03/26 07:32:15;;;;;;;;;;;;;;;9.39;64.76;101354.84;5073809;28;19924;-71
2021/03/26 07:35:05;;;;;;;;;;;;;;;9.55;64.31;101340.66;5073367;28;19925;-72
2021/03/26 07:37:52;;;;;;;;;;;;;;;9.63;64.15;101348.25;5064187;28;19924;-73
2021/03/26 07:40:37;;;;;;;;;;;;;;;9.72;64.31;101352.03;5070089;28;19924;-75
2021/03/26 07:43:10;;;;;;;;;;;;;;;9.89;63.78;101354.28;5072755;28;19924;-71
2021/03/26 07:45:52;;;;;;;;;;;;;;;9.72;64.53;101356.69;5087467;28;20402;-73
2021/03/26 07:48:25;;;;;;;;;;;;;;;9.87;63.93;101354.59;5088949;28;19924;-72
2021/03/26 07:51:01;;;;;;;;;;;;;;;10.05;63.14;101364.00;5086233;28;20308;-74
2021/03/26 07:53:37;;;;;;;;;;;;;;;10.14;62.70;101367.78;5071080;28;19931;-74
2021/03/26 07:56:24;;;;;;;;;;;;;;;10.18;62.80;101353.13;5062169;28;19924;-74
2021/03/26 07:59:09;;;;;;;;;;;;;;;10.11;62.50;101365.63;5038492;28;19935;-73
2021/03/26 08:02:05;;;;;;;;;;;;;;;10.14;62.44;101359.53;5056389;28;19925;-71
2021/03/26 08:04:43;;;;;;;;;;;;;;;10.20;62.04;101352.81;5053126;28;19935;-71
2021/03/26 08:07:29;;;;;;;;;;;;;;;10.20;61.99;101358.31;5060927;28;19928;-71
2021/03/26 08:10:08;;;;;;;;;;;;;;;10.25;62.06;101354.69;5056021;28;20440;-70
2021/03/26 08:12:52;;;;;;;;;;;;;;;10.18;61.96;101355.88;5057042;28;19947;-71
2021/03/26 08:15:24;;;;;;;;;;;;;;;10.17;61.86;101361.66;5018966;28;19925;-71
2021/03/26 08:18:12;;;;;;;;;;;;;;;10.23;61.78;101353.03;5061655;28;19933;-73
2021/03/26 08:20:45;;;;;;;;;;;;;;;10.15;62.26;101359.22;5075253;28;19924;-73
2021/03/26 08:23:12;;;;;;;;;;;;;;;10.23;61.76;101358.56;5063580;28;19943;-71
2021/03/26 08:25:43;;;;;;;;;;;;;;;10.42;61.61;101357.75;5066682;28;20411;-71
2021/03/26 08:28:26;;;;;;;;;;;;;;;10.60;60.87;101357.75;5053988;28;19924;-71
2021/03/26 08:31:11;;;;;;;;;;;;;;;10.54;61.16;101360.91;5046314;28;19932;-73
2021/03/26 08:33:38;;;;;;;;;;;;;;;10.56;61.30;101361.41;5071848;28;19932;-72
2021/03/26 08:36:10;;;;;;;;;;;;;;;10.44;61.63;101375.66;5071134;28;19947;-76
2021/03/26 08:38:49;;;;;;;;;;;;;;;10.57;62.73;101374.91;5054247;28;20284;-76
2021/03/26 08:41:32;;;;;;;;;;;;;;;10.99;61.78;101365.69;5064805;28;19935;-75
2021/03/26 08:43:59;;;;;;;;;;;;;;;11.26;61.70;101366.63;5053118;28;19935;-76
2021/03/26 08:46:33;;;;;;;;;;;;;;;11.37;60.60;101366.47;5049989;28;19925;-74
2021/03/26 08:49:12;;;;;;;;;;;;;;;11.43;61.00;101368.00;5040184;28;20292;-76
2021/03/26 08:51:58;;;;;;;;;;;;;;;11.54;59.61;101359.22;5064868;28;19924;-73
2021/03/26 08:54:46;;;;;;;;;;;;;;;11.65;60.36;101354.34;5042506;28;20383;-78
2021/03/26 08:57:13;;;;;;;;;;;;;;;11.57;59.57;101357.81;5073117;28;19924;-74
2021/03/26 08:59:48;;;;;;;;;;;;;;;11.61;59.35;101354.13;5066915;28;19995;-74
2021/03/26 09:02:21;;;;;;;;;;;;;;;11.82;58.48;101349.88;5048203;28;19932;-73
2021/03/26 09:04:54;;;;;;;;;;;;;;;11.73;57.74;101345.38;5061597;28;19924;-71
2021/03/26 09:07:30;;;;;;;;;;;;;;;11.78;58.42;101343.34;5027887;28;19929;-73
2021/03/26 09:10:16;;;;;;;;;;;;;;;11.65;58.58;101352.41;5057371;28;19935;-73
2021/03/26 09:12:54;;;;;;;;;;;;;;;11.78;58.39;101350.81;5053271;28;20288;-71
2021/03/26 09:15:31;;;;;;;;;;;;;;;11.93;58.35;101339.44;5071403;28;19925;-71
2021/03/26 09:18:07;;;;;;;;;;;;;;;12.16;57.99;101343.94;5039058;28;19924;-72
2021/03/26 09:20:34;;;;;;;;;;;;;;;12.29;58.26;101351.41;5059715;28;19924;-74
2021/03/26 09:23:22;;;;;;;;;;;;;;;12.55;57.69;101349.72;5089406;28;19924;-72
2021/03/26 09:25:49;;;;;;;;;;;;;;;12.45;57.60;101341.63;5062493;28;20376;-71
2021/03/26 09:28:40;;;;;;;;;;;;;;;12.58;57.82;101343.56;5049910;28;20415;-71
2021/03/26 09:31:20;;;;;;;;;;;;;;;12.70;57.52;101345.75;5038071;28;19925;-72
2021/03/26 09:33:57;;;;;;;;;;;;;;;13.06;56.67;101341.84;5052494;28;20434;-71
2021/03/26 09:36:26;;;;;;;;;;;;;;;13.32;55.64;101340.06;5052891;28;19924;-72
2021/03/26 09:39:07;;;;;;;;;;;;;;;13.49;55.37;101342.91;5065737;28;19948;-76
2021/03/26 09:41:50;;;;;;;;;;;;;;;13.43;55.01;101330.38;5063300;28;19925;-74
2021/03/26 09:44:20;;;;;;;;;;;;;;;13.28;55.07;101336.31;5031484;28;19932;-74
2021/03/26 09:46:49;;;;;;;;;;;;;;;13.50;55.14;101339.03;5071563;28;19928;-72
2021/03/26 09:49:17;;;;;;;;;;;;;;;13.71;54.51;101338.47;5046859;28;19925;-75
2021/03/26 09:51:51;;;;;;;;;;;;;;;13.61;54.82;101324.91;5051994;28;19936;-71
2021/03/26 09:54:33;;;;;;;;;;;;;;;13.94;53.80;101324.25;5043385;28;19955;-74
2021/03/26 09:57:17;;;;;;;;;;;;;;;13.93;53.99;101325.38;5046410;28;19931;-73
2021/03/26 10:00:16;;;;;;;;;;;;;;;13.99;53.72;101317.72;5058795;28;19925;-74
2021/03/26 10:02:43;;;;;;;;;;;;;;;13.97;54.55;101314.47;5016188;28;19933;-75
2021/03/26 10:05:16;;;;;;;;;;;;;;;13.78;54.47;101316.69;5015350;28;19956;-73
2021/03/26 10:07:54;;;;;;;;;;;;;;;13.78;54.50;101308.38;4976610;28;19933;-75
2021/03/26 10:13:21;;;;;;;;;;;;;;;14.10;53.78;101303.28;4995854;28;19932;-73
2021/03/26 10:15:56;;;;;;;;;;;;;;;13.98;54.07;101291.97;5028687;28;20404;-74
2021/03/26 10:18:32;;;;;;;;;;;;;;;14.16;54.33;101292.84;4986524;28;19925;-75
2021/03/26 10:20:59;;;;;;;;;;;;;;;14.30;53.31;101286.03;5014292;28;19925;-74
2021/03/26 10:23:34;;;;;;;;;;;;;;;14.31;53.98;101281.31;5011695;28;19926;-74
2021/03/26 10:26:06;;;;;;;;;;;;;;;14.49;51.20;101283.78;4996370;28;19929;-72
2021/03/26 10:28:33;;;;;;;;;;;;;;;14.53;50.79;101278.41;5004920;28;19936;-77
2021/03/26 10:31:13;;;;;;;;;;;;;;;14.53;50.28;101279.22;4992037;28;19926;-74
2021/03/26 10:34:07;;;;;;;;;;;;;;;14.46;50.21;101273.34;4989451;28;19931;-74
2021/03/26 10:36:37;;;;;;;;;;;;;;;14.63;50.25;101269.75;5001978;28;19925;-74
2021/03/26 10:39:09;;;;;;;;;;;;;;;14.80;49.46;101261.44;5024008;28;19931;-74
2021/03/26 10:41:55;;;;;;;;;;;;;;;14.86;50.20;101254.56;5059682;28;19932;-75
2021/03/26 10:44:33;;;;;;;;;;;;;;;14.97;48.63;101250.31;5066212;28;19925;-75
2021/03/26 10:47:06;;;;;;;;;;;;;;;14.90;48.54;101251.94;5066760;28;19925;-74
2021/03/26 10:49:38;;;;;;;;;;;;;;;15.03;48.69;101246.19;5050995;28;20293;-73
2021/03/26 10:52:10;;;;;;;;;;;;;;;15.11;47.97;101247.31;5054085;28;19925;-73
2021/03/26 10:54:55;;;;;;;;;;;;;;;15.17;48.32;101251.53;5037079;28;19931;-75
2021/03/26 10:57:27;;;;;;;;;;;;;;;15.05;47.88;101243.09;5044343;28;19929;-74
2021/03/26 11:00:03;;;;;;;;;;;;;;;14.90;48.37;101244.44;5047751;28;19929;-74
2021/03/26 11:02:45;;;;;;;;;;;;;;;14.68;48.35;101243.81;5054548;28;19924;-73
2021/03/26 11:05:23;;;;;;;;;;;;;;;14.42;47.66;101244.66;5044521;28;20297;-75
2021/03/26 11:07:59;;;;;;;;;;;;;;;14.13;47.12;101236.13;5072500;28;19924;-72
2021/03/26 11:10:30;;;;;;;;;;;;;;;14.44;46.98;101224.91;5068468;28;20263;-75
2021/03/26 11:13:00;;;;;;;;;;;;;;;14.73;46.85;101219.53;5042146;28;19933;-75
2021/03/26 11:15:53;;;;;;;;;;;;;;;14.88;46.25;101221.75;5056175;28;19958;-73
2021/03/26 11:18:50;;;;;;;;;;;;;;;15.02;45.62;101216.84;5041882;28;19925;-75
2021/03/26 11:21:18;;;;;;;;;;;;;;;14.97;44.53;101217.00;5048553;28;20404;-74
2021/03/26 11:23:59;;;;;;;;;;;;;;;14.58;46.29;101198.66;5069377;28;19935;-76
2021/03/26 11:26:33;;;;;;;;;;;;;;;14.84;46.10;101201.38;5050016;28;20398;-75
2021/03/26 11:29:24;;;;;;;;;;;;;;;14.82;46.62;101194.53;5041838;28;19924;-75
2021/03/26 11:31:56;;;;;;;;;;;;;;;15.01;45.85;101195.75;5043784;28;19924;-75
2021/03/26 11:34:30;;;;;;;;;;;;;;;14.97;45.44;101205.91;5054065;28;20015;-73
2021/03/26 11:37:01;;;;;;;;;;;;;;;14.92;45.23;101195.00;5052847;28;19932;-74
2021/03/26 11:39:36;;;;;;;;;;;;;;;15.08;44.97;101178.63;5057065;28;19924;-75
2021/03/26 11:42:06;;;;;;;;;;;;;;;15.38;44.76;101185.81;5031557;28;19940;-73
2021/03/26 11:44:57;;;;;;;;;;;;;;;15.44;44.36;101174.25;5051452;28;19928;-75
2021/03/26 11:47:26;;;;;;;;;;;;;;;15.36;44.23;101179.81;5037127;28;19929;-74
2021/03/26 11:50:05;;;;;;;;;;;;;;;15.17;44.84;101185.75;5058817;28;20000;-73
2021/03/26 11:52:40;;;;;;;;;;;;;;;15.34;44.20;101162.69;5041289;28;19939;-75
2021/03/26 11:55:19;;;;;;;;;;;;;;;15.45;43.97;101175.03;5065594;28;19929;-73
2021/03/26 11:57:53;;;;;;;;;;;;;;;15.22;44.11;101170.91;5041955;28;20308;-74
2021/03/26 12:00:40;;;;;;;;;;;;;;;14.79;45.06;101173.81;5054778;28;19928;-73
2021/03/26 12:03:11;;;;;;;;;;;;;;;15.12;44.08;101169.28;5039530;28;19931;-72
2021/03/26 12:06:07;;;;;;;;;;;;;;;15.32;43.46;101156.66;5041506;28;19933;-72
2021/03/26 12:08:54;;;;;;;;;;;;;;;15.44;43.30;101137.34;5081671;28;19924;-76
2021/03/26 12:11:28;;;;;;;;;;;;;;;15.77;42.40;101152.16;5064432;28;19925;-73
2021/03/26 12:13:55;;;;;;;;;;;;;;;16.12;42.09;101138.78;5048380;28;19935;-73
2021/03/26 12:16:30;;;;;;;;;;;;;;;16.33;41.11;101137.63;5039071;28;20377;-73
2021/03/26 12:19:01;;;;;;;;;;;;;;;16.29;40.95;101133.06;5069987;28;20380;-75
2021/03/26 12:21:41;;;;;;;;;;;;;;;16.35;40.79;101134.50;5059881;28;20278;-77
2021/03/26 12:24:19;;;;;;;;;;;;;;;16.45;41.49;101136.84;5054716;28;20380;-76
2021/03/26 12:26:50;;;;;;;;;;;;;;;16.40;40.01;101125.94;5058289;28;21615;-76
2021/03/26 12:29:21;;;;;;;;;;;;;;;16.18;40.00;101118.78;5057326;28;19935;-77
2021/03/26 12:32:11;;;;;;;;;;;;;;;15.78;40.34;101121.25;5055441;28;19931;-73
2021/03/26 12:34:39;;;;;;;;;;;;;;;15.71;40.02;101126.53;5044855;28;19924;-75
2021/03/26 12:37:06;;;;;;;;;;;;;;;16.11;39.46;101114.94;5050319;28;20296;-76
2021/03/26 12:39:41;;;;;;;;;;;;;;;16.06;39.49;101118.72;5034670;28;19949;-77
2021/03/26 12:42:09;;;;;;;;;;;;;;;16.32;39.63;101105.41;5050316;28;20365;-77
2021/03/26 12:44:41;;;;;;;;;;;;;;;16.51;38.83;101107.72;5050207;28;19935;-76
2021/03/26 12:47:19;;;;;;;;;;;;;;;16.53;38.70;101116.50;5049613;28;19925;-76
2021/03/26 12:49:52;;;;;;;;;;;;;;;16.48;38.56;101108.38;5029861;28;20472;-75
2021/03/26 12:53:03;;;;;;;;;;;;;;;16.65;38.41;101106.22;5049516;28;19925;-77
2021/03/26 12:55:31;;;;;;;;;;;;;;;16.68;38.33;101099.16;5024447;28;19933;-76
2021/03/26 12:58:01;;;;;;;;;;;;;;;16.76;38.09;101095.47;5031039;28;19966;-77
2021/03/26 13:00:36;;;;;;;;;;;;;;;16.66;38.51;101095.91;5027844;28;19936;-76
2021/03/26 13:03:14;;;;;;;;;;;;;;;16.55;38.85;101094.72;4996359;28;20435;-78
2021/03/26 13:05:44;;;;;;;;;;;;;;;16.88;38.69;101085.16;4997086;28;19925;-77
2021/03/26 13:08:20;;;;;;;;;;;;;;;16.71;38.30;101079.81;5010249;28;19925;-76
2021/03/26 13:10:47;;;;;;;;;;;;;;;16.86;38.09;101081.09;4977434;28;19933;-77
2021/03/26 13:13:30;;;;;;;;;;;;;;;16.63;38.70;101075.16;5026280;28;20377;-75
2021/03/26 13:16:22;;;;;;;;;;;;;;;16.28;38.69;101073.91;5010152;28;19930;-76
2021/03/26 13:19:21;;;;;;;;;;;;;;;16.41;38.21;101066.38;5012856;28;19925;-74
2021/03/26 13:22:07;;;;;;;;;;;;;;;16.23;38.42;101062.97;5013385;28;19925;-72
2021/03/26 13:25:01;;;;;;;;;;;;;;;16.43;37.77;101064.06;4996579;28;19926;-74
2021/03/26 13:27:29;;;;;;;;;;;;;;;16.40;37.78;101067.56;5027862;28;19926;-73
2021/03/26 13:30:11;;;;;;;;;;;;;;;16.37;37.67;101065.47;5027970;28;20334;-76
2021/03/26 13:32:44;;;;;;;;;;;;;;;16.50;37.46;101042.13;5032791;28;19948;-75
2021/03/26 13:35:18;;;;;;;;;;;;;;;16.59;37.36;101051.16;5029372;28;20000;-72